sensor_id;sensor_type;location;lat;lon;timestamp;pressure;altitude;pressure_sealevel;temperature;humidity
48792;BME280;34587;48.816;9.420;2022-12-18T00:02:02;100007.16;;;-9.63;87.71
48792;BME280;34587;48.816;9.420;2022-12-18T00:04:27;100002.03;;;-9.65;87.24
48792;BME280;34587;48.816;9.420;2022-12-18T00:06:53;100001.00;;;-9.77;87.24
48792;BME280;34587;48.816;9.420;2022-12-18T00:09:19;100010.81;;;-9.90;87.83
48792;BME280;34587;48.816;9.420;2022-12-18T00:11:44;100012.94;;;-9.74;88.11
48792;BME280;34587;48.816;9.420;2022-12-18T00:14:11;100013.56;;;-9.77;86.90
48792;BME280;34587;48.816;9.420;2022-12-18T00:16:37;99995.50;;;-9.73;87.01
48792;BME280;34587;48.816;9.420;2022-12-18T00:19:04;99992.63;;;-9.57;86.66
48792;BME280;34587;48.816;9.420;2022-12-18T00:21:30;100006.66;;;-9.69;85.78
48792;BME280;34587;48.816;9.420;2022-12-18T00:23:56;100013.31;;;-9.80;86.47
48792;BME280;34587;48.816;9.420;2022-12-18T00:26:24;100013.81;;;-9.74;86.29
48792;BME280;34587;48.816;9.420;2022-12-18T00:28:50;100016.59;;;-9.71;86.78
48792;BME280;34587;48.816;9.420;2022-12-18T00:31:20;100024.81;;;-9.72;86.15
48792;BME280;34587;48.816;9.420;2022-12-18T00:33:46;100017.94;;;-9.74;86.03
48792;BME280;34587;48.816;9.420;2022-12-18T00:36:14;100014.31;;;-9.88;85.91
48792;BME280;34587;48.816;9.420;2022-12-18T00:38:40;100016.44;;;-9.93;86.48
48792;BME280;34587;48.816;9.420;2022-12-18T00:41:06;100024.97;;;-9.91;85.38
48792;BME280;34587;48.816;9.420;2022-12-18T00:43:31;100020.19;;;-10.08;85.90
48792;BME280;34587;48.816;9.420;2022-12-18T00:45:57;100025.31;;;-9.96;87.16
48792;BME280;34587;48.816;9.420;2022-12-18T00:48:22;100019.06;;;-9.91;86.31
48792;BME280;34587;48.816;9.420;2022-12-18T00:50:49;100017.56;;;-9.89;85.93
48792;BME280;34587;48.816;9.420;2022-12-18T00:53:15;100023.47;;;-9.89;85.47
48792;BME280;34587;48.816;9.420;2022-12-18T00:55:41;100018.56;;;-9.97;85.30
48792;BME280;34587;48.816;9.420;2022-12-18T00:58:07;100021.72;;;-10.00;85.38
48792;BME280;34587;48.816;9.420;2022-12-18T05:45:17;100074.72;;;-10.05;86.70
48792;BME280;34587;48.816;9.420;2022-12-18T05:47:42;100079.84;;;-10.14;87.37
48792;BME280;34587;48.816;9.420;2022-12-18T05:50:08;100069.56;;;-9.87;87.12
48792;BME280;34587;48.816;9.420;2022-12-18T05:52:33;100075.50;;;-9.86;87.19
48792;BME280;34587;48.816;9.420;2022-12-18T05:54:58;100078.22;;;-9.93;87.44
48792;BME280;34587;48.816;9.420;2022-12-18T05:57:24;100075.44;;;-9.96;88.27
48792;BME280;34587;48.816;9.420;2022-12-18T05:59:49;100076.88;;;-9.90;88.17
48792;BME280;34587;48.816;9.420;2022-12-18T06:02:14;100087.50;;;-9.92;88.91
48792;BME280;34587;48.816;9.420;2022-12-18T06:04:40;100090.28;;;-9.79;89.62
48792;BME280;34587;48.816;9.420;2022-12-18T06:07:05;100078.38;;;-9.71;89.34
48792;BME280;34587;48.816;9.420;2022-12-18T06:09:30;100072.25;;;-9.75;88.35
48792;BME280;34587;48.816;9.420;2022-12-18T06:11:55;100079.00;;;-9.74;88.15
48792;BME280;34587;48.816;9.420;2022-12-18T06:14:21;100071.97;;;-9.78;88.25
48792;BME280;34587;48.816;9.420;2022-12-18T06:16:46;100072.09;;;-9.87;88.51
48792;BME280;34587;48.816;9.420;2022-12-18T06:19:14;100077.25;;;-9.95;88.95
48792;BME280;34587;48.816;9.420;2022-12-18T06:21:40;100087.25;;;-10.05;89.28
48792;BME280;34587;48.816;9.420;2022-12-18T06:24:05;100087.75;;;-9.89;90.03
48792;BME280;34587;48.816;9.420;2022-12-18T06:26:31;100090.53;;;-9.76;90.34
48792;BME280;34587;48.816;9.420;2022-12-18T06:28:56;100083.88;;;-9.86;90.24
48792;BME280;34587;48.816;9.420;2022-12-18T06:31:21;100088.75;;;-9.87;90.03
48792;BME280;34587;48.816;9.420;2022-12-18T06:33:47;100090.53;;;-9.76;90.06
48792;BME280;34587;48.816;9.420;2022-12-18T06:36:13;100094.78;;;-9.85;89.91
48792;BME280;34587;48.816;9.420;2022-12-18T06:38:41;100087.00;;;-9.98;89.99
48792;BME280;34587;48.816;9.420;2022-12-18T06:41:14;100083.72;;;-9.97;90.28
48792;BME280;34587;48.816;9.420;2022-12-18T06:43:40;100089.88;;;-9.94;90.74
48792;BME280;34587;48.816;9.420;2022-12-18T06:46:06;100092.41;;;-9.63;90.52
48792;BME280;34587;48.816;9.420;2022-12-18T06:48:32;100086.53;;;-9.64;91.26
48792;BME280;34587;48.816;9.420;2022-12-18T06:50:57;100102.31;;;-9.75;91.28
48792;BME280;34587;48.816;9.420;2022-12-18T06:53:23;100094.81;;;-9.65;91.61
48792;BME280;34587;48.816;9.420;2022-12-18T06:55:48;100091.91;;;-9.69;90.69
48792;BME280;34587;48.816;9.420;2022-12-18T06:58:14;100103.56;;;-9.80;89.57
48792;BME280;34587;48.816;9.420;2022-12-18T07:00:39;100103.19;;;-9.85;89.27
48792;BME280;34587;48.816;9.420;2022-12-18T07:03:04;100115.34;;;-9.89;89.92
48792;BME280;34587;48.816;9.420;2022-12-18T07:05:30;100120.47;;;-9.88;90.58
48792;BME280;34587;48.816;9.420;2022-12-18T07:07:55;100117.34;;;-9.95;90.26
48792;BME280;34587;48.816;9.420;2022-12-18T07:10:21;100116.59;;;-9.94;90.04
48792;BME280;34587;48.816;9.420;2022-12-18T07:12:46;100112.19;;;-9.87;90.29
48792;BME280;34587;48.816;9.420;2022-12-18T07:15:11;100111.31;;;-9.87;90.26
48792;BME280;34587;48.816;9.420;2022-12-18T07:17:36;100106.97;;;-9.69;90.47
48792;BME280;34587;48.816;9.420;2022-12-18T07:20:02;100112.88;;;-9.28;89.97
48792;BME280;34587;48.816;9.420;2022-12-18T07:22:27;100116.63;;;-9.23;89.40
48792;BME280;34587;48.816;9.420;2022-12-18T07:24:53;100121.50;;;-9.14;89.00
48792;BME280;34587;48.816;9.420;2022-12-18T07:27:18;100130.06;;;-9.22;88.78
48792;BME280;34587;48.816;9.420;2022-12-18T07:29:43;100127.25;;;-8.85;88.97
48792;BME280;34587;48.816;9.420;2022-12-18T07:32:09;100127.13;;;-8.96;87.90
48792;BME280;34587;48.816;9.420;2022-12-18T07:34:34;100124.72;;;-8.74;87.12
48792;BME280;34587;48.816;9.420;2022-12-18T07:36:59;100127.34;;;-8.73;87.03
48792;BME280;34587;48.816;9.420;2022-12-18T07:39:25;100122.84;;;-8.87;82.99
48792;BME280;34587;48.816;9.420;2022-12-18T07:41:50;100144.09;;;-9.24;82.79
48792;BME280;34587;48.816;9.420;2022-12-18T07:44:34;100148.50;;;-9.42;83.07
48792;BME280;34587;48.816;9.420;2022-12-18T07:46:59;100136.94;;;-9.20;84.29
48792;BME280;34587;48.816;9.420;2022-12-18T07:49:25;100138.94;;;-9.16;84.03
48792;BME280;34587;48.816;9.420;2022-12-18T07:51:50;100133.88;;;-8.85;85.43
48792;BME280;34587;48.816;9.420;2022-12-18T07:54:15;100135.63;;;-8.74;86.34
48792;BME280;34587;48.816;9.420;2022-12-18T07:56:40;100135.44;;;-8.33;85.90
48792;BME280;34587;48.816;9.420;2022-12-18T07:59:06;100139.59;;;-8.02;84.40
48792;BME280;34587;48.816;9.420;2022-12-18T08:01:31;100142.97;;;-7.79;83.82
48792;BME280;34587;48.816;9.420;2022-12-18T08:03:57;100134.00;;;-7.54;83.19
48792;BME280;34587;48.816;9.420;2022-12-18T08:06:23;100137.88;;;-7.35;82.00
48792;BME280;34587;48.816;9.420;2022-12-18T08:08:48;100138.56;;;-7.26;82.00
48792;BME280;34587;48.816;9.420;2022-12-18T08:11:13;100141.84;;;-7.27;82.21
48792;BME280;34587;48.816;9.420;2022-12-18T08:13:39;100140.34;;;-7.25;82.65
48792;BME280;34587;48.816;9.420;2022-12-18T08:16:06;100134.00;;;-7.08;82.19
48792;BME280;34587;48.816;9.420;2022-12-18T08:18:33;100135.31;;;-7.02;80.04
48792;BME280;34587;48.816;9.420;2022-12-18T08:21:08;100136.63;;;-7.07;78.16
48792;BME280;34587;48.816;9.420;2022-12-18T08:23:33;100134.47;;;-6.79;78.38
48792;BME280;34587;48.816;9.420;2022-12-18T08:25:58;100130.22;;;-6.68;78.95
48792;BME280;34587;48.816;9.420;2022-12-18T08:28:23;100126.81;;;-6.68;78.68
48792;BME280;34587;48.816;9.420;2022-12-18T08:30:52;100121.31;;;-6.63;79.02
48792;BME280;34587;48.816;9.420;2022-12-18T08:33:17;100121.31;;;-6.63;79.17
48792;BME280;34587;48.816;9.420;2022-12-18T08:35:42;100118.50;;;-6.56;79.10
48792;BME280;34587;48.816;9.420;2022-12-18T08:38:08;100129.22;;;-6.58;79.37
48792;BME280;34587;48.816;9.420;2022-12-18T08:40:33;100133.59;;;-6.32;78.74
48792;BME280;34587;48.816;9.420;2022-12-18T08:42:58;100123.25;;;-6.12;78.15
48792;BME280;34587;48.816;9.420;2022-12-18T08:45:42;100122.56;;;-5.98;77.51
48792;BME280;34587;48.816;9.420;2022-12-18T08:48:08;100124.91;;;-5.87;77.34
48792;BME280;34587;48.816;9.420;2022-12-18T08:50:33;100126.00;;;-5.59;77.13
48792;BME280;34587;48.816;9.420;2022-12-18T08:52:59;100121.69;;;-5.10;75.01
48792;BME280;34587;48.816;9.420;2022-12-18T08:55:24;100121.91;;;-4.80;73.94
48792;BME280;34587;48.816;9.420;2022-12-18T08:57:50;100114.75;;;-4.34;73.08
48792;BME280;34587;48.816;9.420;2022-12-18T09:00:15;100106.81;;;-3.14;69.51
48792;BME280;34587;48.816;9.420;2022-12-18T09:02:41;100113.50;;;-1.93;63.41
48792;BME280;34587;48.816;9.420;2022-12-18T09:05:06;100093.09;;;-0.41;59.57
48792;BME280;34587;48.816;9.420;2022-12-18T09:07:31;100081.66;;;1.04;54.80
48792;BME280;34587;48.816;9.420;2022-12-18T09:09:57;100084.00;;;1.20;52.68
48792;BME280;34587;48.816;9.420;2022-12-18T09:12:22;100076.53;;;1.04;53.24
48792;BME280;34587;48.816;9.420;2022-12-18T09:14:47;100074.22;;;1.10;52.77
48792;BME280;34587;48.816;9.420;2022-12-18T09:17:14;100069.09;;;2.43;50.39
48792;BME280;34587;48.816;9.420;2022-12-18T09:19:39;100056.28;;;3.47;48.00
48792;BME280;34587;48.816;9.420;2022-12-18T09:22:05;100053.31;;;4.50;45.15
48792;BME280;34587;48.816;9.420;2022-12-18T09:24:30;100063.06;;;4.97;43.82
48792;BME280;34587;48.816;9.420;2022-12-18T09:26:55;100046.03;;;6.56;40.58
48792;BME280;34587;48.816;9.420;2022-12-18T09:29:21;100058.31;;;5.47;42.22
48792;BME280;34587;48.816;9.420;2022-12-18T09:31:46;100047.44;;;6.40;39.90
48792;BME280;34587;48.816;9.420;2022-12-18T09:34:12;100046.09;;;6.15;39.97
48792;BME280;34587;48.816;9.420;2022-12-18T09:36:38;100050.47;;;6.63;39.66
48792;BME280;34587;48.816;9.420;2022-12-18T09:39:04;100062.72;;;5.52;40.88
48792;BME280;34587;48.816;9.420;2022-12-18T09:44:27;100052.47;;;5.55;42.15
48792;BME280;34587;48.816;9.420;2022-12-18T09:47:00;100052.13;;;6.17;40.83
48792;BME280;34587;48.816;9.420;2022-12-18T09:49:30;100051.50;;;4.46;44.00
48792;BME280;34587;48.816;9.420;2022-12-18T09:52:23;100048.63;;;3.75;44.98
48792;BME280;34587;48.816;9.420;2022-12-18T09:54:56;100051.16;;;4.04;45.80
48792;BME280;34587;48.816;9.420;2022-12-18T09:57:24;100044.38;;;4.06;46.03
48792;BME280;34587;48.816;9.420;2022-12-18T10:00:03;100042.56;;;4.02;47.05
48792;BME280;34587;48.816;9.420;2022-12-18T10:02:32;100040.75;;;4.29;46.07
48792;BME280;34587;48.816;9.420;2022-12-18T10:05:02;100042.91;;;5.12;44.52
48792;BME280;34587;48.816;9.420;2022-12-18T10:08:10;100031.50;;;4.03;47.16
48792;BME280;34587;48.816;9.420;2022-12-18T10:11:01;100033.53;;;3.56;48.13
48792;BME280;34587;48.816;9.420;2022-12-18T10:13:39;100026.84;;;4.84;45.57
48792;BME280;34587;48.816;9.420;2022-12-18T10:16:16;100028.22;;;4.72;45.62
48792;BME280;34587;48.816;9.420;2022-12-18T10:22:11;100007.00;;;7.98;39.24
48792;BME280;34587;48.816;9.420;2022-12-18T10:25:28;100020.16;;;6.97;41.07
48792;BME280;34587;48.816;9.420;2022-12-18T10:27:28;100036.66;;;4.68;45.32
48792;BME280;34587;48.816;9.420;2022-12-18T10:29:54;100038.50;;;5.82;43.62
48792;BME280;34587;48.816;9.420;2022-12-18T10:32:22;100033.47;;;5.47;45.15
48792;BME280;34587;48.816;9.420;2022-12-18T10:34:50;100036.97;;;5.13;45.16
48792;BME280;34587;48.816;9.420;2022-12-18T10:37:18;100044.09;;;4.57;47.34
48792;BME280;34587;48.816;9.420;2022-12-18T10:39:45;100030.91;;;5.86;44.44
48792;BME280;34587;48.816;9.420;2022-12-18T10:42:17;100023.66;;;6.08;44.05
48792;BME280;34587;48.816;9.420;2022-12-18T10:44:43;100036.03;;;6.27;43.92
48792;BME280;34587;48.816;9.420;2022-12-18T10:47:14;100031.34;;;6.52;43.23
48792;BME280;34587;48.816;9.420;2022-12-18T10:49:47;100043.22;;;5.62;45.86
48792;BME280;34587;48.816;9.420;2022-12-18T10:52:24;100048.28;;;4.86;43.56
48792;BME280;34587;48.816;9.420;2022-12-18T10:54:54;100073.97;;;1.91;52.21
48792;BME280;34587;48.816;9.420;2022-12-18T10:59:53;100071.78;;;-0.06;60.09
48792;BME280;34587;48.816;9.420;2022-12-18T11:02:35;100084.66;;;-0.76;62.83
48792;BME280;34587;48.816;9.420;2022-12-18T11:05:01;100080.38;;;-0.77;64.38
48792;BME280;34587;48.816;9.420;2022-12-18T11:07:47;100071.41;;;-1.05;64.61
48792;BME280;34587;48.816;9.420;2022-12-18T11:10:16;100059.94;;;-0.43;64.04
48792;BME280;34587;48.816;9.420;2022-12-18T11:12:42;100054.31;;;0.02;63.36
48792;BME280;34587;48.816;9.420;2022-12-18T11:15:16;100059.44;;;-0.16;62.72
48792;BME280;34587;48.816;9.420;2022-12-18T11:17:50;100047.38;;;1.41;58.42
48792;BME280;34587;48.816;9.420;2022-12-18T11:20:34;100034.53;;;2.56;55.31
48792;BME280;34587;48.816;9.420;2022-12-18T11:23:02;100045.53;;;3.04;53.04
48792;BME280;34587;48.816;9.420;2022-12-18T11:25:29;100031.13;;;3.62;51.50
48792;BME280;34587;48.816;9.420;2022-12-18T11:28:01;100018.97;;;2.24;53.57
48792;BME280;34587;48.816;9.420;2022-12-18T11:30:32;100011.09;;;2.18;55.89
48792;BME280;34587;48.816;9.420;2022-12-18T11:35:57;99993.19;;;3.49;52.81
48792;BME280;34587;48.816;9.420;2022-12-18T11:38:26;100012.44;;;2.33;54.01
48792;BME280;34587;48.816;9.420;2022-12-18T11:41:00;100003.34;;;2.92;53.91
48792;BME280;34587;48.816;9.420;2022-12-18T11:43:33;100003.94;;;3.67;52.05
48792;BME280;34587;48.816;9.420;2022-12-18T11:46:05;100007.19;;;4.86;49.19
48792;BME280;34587;48.816;9.420;2022-12-18T11:48:36;100002.59;;;3.78;50.00
48792;BME280;34587;48.816;9.420;2022-12-18T11:51:05;99993.41;;;3.01;52.26
48792;BME280;34587;48.816;9.420;2022-12-18T11:53:36;99988.06;;;4.09;50.42
48792;BME280;34587;48.816;9.420;2022-12-18T11:56:58;99979.97;;;3.08;53.27
48792;BME280;34587;48.816;9.420;2022-12-18T12:10:33;99985.28;;;2.12;55.04
48792;BME280;34587;48.816;9.420;2022-12-18T12:23:52;99968.44;;;1.24;58.23
48792;BME280;34587;48.816;9.420;2022-12-18T12:32:22;99971.91;;;0.01;63.45
48792;BME280;34587;48.816;9.420;2022-12-18T12:35:15;99969.09;;;-0.24;64.17
48792;BME280;34587;48.816;9.420;2022-12-18T12:40:30;99979.56;;;-0.18;63.80
48792;BME280;34587;48.816;9.420;2022-12-18T12:43:28;99983.75;;;-0.58;64.96
48792;BME280;34587;48.816;9.420;2022-12-18T12:46:00;99972.03;;;-0.35;65.18
48792;BME280;34587;48.816;9.420;2022-12-18T12:48:36;99978.50;;;-0.61;65.76
48792;BME280;34587;48.816;9.420;2022-12-18T12:51:24;99978.94;;;-0.69;65.84
48792;BME280;34587;48.816;9.420;2022-12-18T12:53:51;99974.25;;;-0.42;65.76
48792;BME280;34587;48.816;9.420;2022-12-18T12:56:19;99977.00;;;-0.38;65.30
48792;BME280;34587;48.816;9.420;2022-12-18T13:01:27;99978.78;;;-0.92;66.69
48792;BME280;34587;48.816;9.420;2022-12-18T13:04:01;99978.38;;;-1.17;67.96
48792;BME280;34587;48.816;9.420;2022-12-18T13:06:42;99984.19;;;-1.02;67.49
48792;BME280;34587;48.816;9.420;2022-12-18T13:09:09;99984.22;;;-0.47;66.50
48792;BME280;34587;48.816;9.420;2022-12-18T13:11:41;99988.09;;;-0.55;66.05
48792;BME280;34587;48.816;9.420;2022-12-18T13:14:30;99980.16;;;-0.43;65.86
48792;BME280;34587;48.816;9.420;2022-12-18T13:17:15;99989.81;;;-0.54;65.43
48792;BME280;34587;48.816;9.420;2022-12-18T13:19:41;99992.09;;;-0.78;66.13
48792;BME280;34587;48.816;9.420;2022-12-18T13:22:21;99994.03;;;-0.92;66.96
48792;BME280;34587;48.816;9.420;2022-12-18T13:24:47;99983.69;;;-0.77;66.73
48792;BME280;34587;48.816;9.420;2022-12-18T13:30:41;99988.91;;;-0.74;66.52
48792;BME280;34587;48.816;9.420;2022-12-18T13:43:35;99982.31;;;-0.88;67.44
48792;BME280;34587;48.816;9.420;2022-12-18T13:51:18;99963.69;;;-0.69;66.48
48792;BME280;34587;48.816;9.420;2022-12-18T13:53:49;99969.09;;;-0.81;67.28
48792;BME280;34587;48.816;9.420;2022-12-18T13:56:22;99966.06;;;-1.10;68.32
48792;BME280;34587;48.816;9.420;2022-12-18T14:01:42;99966.56;;;-0.99;68.56
48792;BME280;34587;48.816;9.420;2022-12-18T14:04:17;99974.19;;;-0.99;68.70
48792;BME280;34587;48.816;9.420;2022-12-18T14:06:43;99970.75;;;-1.17;69.25
48792;BME280;34587;48.816;9.420;2022-12-18T14:09:14;99969.75;;;-1.03;68.26
48792;BME280;34587;48.816;9.420;2022-12-18T14:11:39;99971.84;;;-1.12;69.03
48792;BME280;34587;48.816;9.420;2022-12-18T14:14:05;99974.19;;;-1.35;69.86
48792;BME280;34587;48.816;9.420;2022-12-18T14:16:33;99985.69;;;-1.59;70.11
48792;BME280;34587;48.816;9.420;2022-12-18T14:18:59;99986.00;;;-1.69;70.89
48792;BME280;34587;48.816;9.420;2022-12-18T14:21:27;99989.91;;;-1.76;70.89
48792;BME280;34587;48.816;9.420;2022-12-18T14:26:38;99990.63;;;-1.78;71.54
48792;BME280;34587;48.816;9.420;2022-12-18T14:31:46;100000.66;;;-1.98;72.05
48792;BME280;34587;48.816;9.420;2022-12-18T14:34:15;99995.47;;;-1.99;72.33
48792;BME280;34587;48.816;9.420;2022-12-18T14:36:41;99998.91;;;-2.15;72.75
48792;BME280;34587;48.816;9.420;2022-12-18T14:39:17;99995.56;;;-2.14;73.16
48792;BME280;34587;48.816;9.420;2022-12-18T14:41:43;99998.59;;;-2.21;73.33
48792;BME280;34587;48.816;9.420;2022-12-18T14:44:11;99996.13;;;-2.20;73.58
48792;BME280;34587;48.816;9.420;2022-12-18T14:46:38;100011.59;;;-2.31;73.83
48792;BME280;34587;48.816;9.420;2022-12-18T14:49:33;100002.88;;;-2.37;74.27
48792;BME280;34587;48.816;9.420;2022-12-18T14:52:13;100004.28;;;-2.42;74.56
48792;BME280;34587;48.816;9.420;2022-12-18T14:54:46;100011.31;;;-2.52;74.88
48792;BME280;34587;48.816;9.420;2022-12-18T14:57:24;99999.97;;;-2.59;75.19
48792;BME280;34587;48.816;9.420;2022-12-18T14:59:50;100006.28;;;-2.67;75.87
48792;BME280;34587;48.816;9.420;2022-12-18T15:02:25;100000.34;;;-2.68;75.81
48792;BME280;34587;48.816;9.420;2022-12-18T15:07:41;100003.16;;;-2.78;76.54
48792;BME280;34587;48.816;9.420;2022-12-18T15:10:11;100003.84;;;-2.80;76.36
48792;BME280;34587;48.816;9.420;2022-12-18T15:12:41;100007.94;;;-2.99;76.74
48792;BME280;34587;48.816;9.420;2022-12-18T15:15:46;100013.00;;;-2.99;76.95
48792;BME280;34587;48.816;9.420;2022-12-18T15:18:13;100015.97;;;-3.06;76.93
48792;BME280;34587;48.816;9.420;2022-12-18T15:23:19;100011.78;;;-3.20;77.72
48792;BME280;34587;48.816;9.420;2022-12-18T15:25:46;100004.13;;;-3.37;78.35
48792;BME280;34587;48.816;9.420;2022-12-18T15:28:35;100010.66;;;-3.25;77.96
48792;BME280;34587;48.816;9.420;2022-12-18T15:31:23;99997.47;;;-3.34;78.30
48792;BME280;34587;48.816;9.420;2022-12-18T15:36:19;99995.53;;;-3.39;78.32
48792;BME280;34587;48.816;9.420;2022-12-18T15:38:52;99995.38;;;-3.42;78.61
48792;BME280;34587;48.816;9.420;2022-12-18T15:41:19;99988.06;;;-3.52;78.98
48792;BME280;34587;48.816;9.420;2022-12-18T15:43:47;99991.00;;;-3.59;79.39
48792;BME280;34587;48.816;9.420;2022-12-18T15:46:18;99989.59;;;-3.54;79.05
48792;BME280;34587;48.816;9.420;2022-12-18T15:48:50;99992.06;;;-3.55;79.17
48792;BME280;34587;48.816;9.420;2022-12-18T15:51:16;99992.41;;;-3.64;79.17
48792;BME280;34587;48.816;9.420;2022-12-18T15:53:43;99993.78;;;-3.69;79.57
48792;BME280;34587;48.816;9.420;2022-12-18T15:56:11;99990.13;;;-3.74;79.65
48792;BME280;34587;48.816;9.420;2022-12-18T15:58:56;100000.84;;;-3.78;80.01
48792;BME280;34587;48.816;9.420;2022-12-18T16:01:23;99993.44;;;-3.75;80.25
48792;BME280;34587;48.816;9.420;2022-12-18T16:03:49;99993.63;;;-3.72;79.64
48792;BME280;34587;48.816;9.420;2022-12-18T16:06:14;99995.91;;;-3.77;79.90
48792;BME280;34587;48.816;9.420;2022-12-18T16:08:40;100001.91;;;-3.90;80.05
48792;BME280;34587;48.816;9.420;2022-12-18T16:11:05;100002.16;;;-3.85;79.88
48792;BME280;34587;48.816;9.420;2022-12-18T16:13:31;99999.59;;;-4.00;80.82
48792;BME280;34587;48.816;9.420;2022-12-18T16:15:56;99999.34;;;-4.04;80.83
48792;BME280;34587;48.816;9.420;2022-12-18T16:18:22;99997.94;;;-3.99;80.85
48792;BME280;34587;48.816;9.420;2022-12-18T16:20:47;100001.91;;;-4.18;81.35
48792;BME280;34587;48.816;9.420;2022-12-18T16:23:13;100001.59;;;-4.09;81.51
48792;BME280;34587;48.816;9.420;2022-12-18T16:25:38;99998.06;;;-4.11;81.63
48792;BME280;34587;48.816;9.420;2022-12-18T16:28:04;100004.00;;;-4.25;81.72
48792;BME280;34587;48.816;9.420;2022-12-18T16:30:30;99996.88;;;-4.03;81.06
48792;BME280;34587;48.816;9.420;2022-12-18T16:32:57;99998.06;;;-4.11;81.35
48792;BME280;34587;48.816;9.420;2022-12-18T16:35:25;99997.47;;;-4.07;81.23
48792;BME280;34587;48.816;9.420;2022-12-18T16:37:50;99999.84;;;-4.10;81.14
48792;BME280;34587;48.816;9.420;2022-12-18T16:40:16;99999.47;;;-4.16;81.29
48792;BME280;34587;48.816;9.420;2022-12-18T16:42:44;99998.59;;;-4.17;81.58
48792;BME280;34587;48.816;9.420;2022-12-18T16:45:12;99992.50;;;-4.20;81.56
48792;BME280;34587;48.816;9.420;2022-12-18T16:47:38;99990.72;;;-4.21;81.57
48792;BME280;34587;48.816;9.420;2022-12-18T16:50:04;99987.59;;;-4.17;81.49
48792;BME280;34587;48.816;9.420;2022-12-18T16:52:30;99983.91;;;-4.22;81.47
48792;BME280;34587;48.816;9.420;2022-12-18T16:54:55;99990.34;;;-4.27;81.80
48792;BME280;34587;48.816;9.420;2022-12-18T16:57:21;99992.69;;;-4.30;82.37
48792;BME280;34587;48.816;9.420;2022-12-18T16:59:47;99995.63;;;-4.24;81.71
48792;BME280;34587;48.816;9.420;2022-12-18T17:02:14;99992.91;;;-4.41;82.23
48792;BME280;34587;48.816;9.420;2022-12-18T17:04:41;99992.34;;;-4.36;82.04
48792;BME280;34587;48.816;9.420;2022-12-18T17:07:06;99998.47;;;-4.33;82.27
48792;BME280;34587;48.816;9.420;2022-12-18T17:09:32;99992.88;;;-4.27;81.67
48792;BME280;34587;48.816;9.420;2022-12-18T17:11:57;99995.22;;;-4.30;82.09
48792;BME280;34587;48.816;9.420;2022-12-18T17:14:24;99991.38;;;-4.38;81.78
48792;BME280;34587;48.816;9.420;2022-12-18T17:16:51;99988.34;;;-4.33;81.67
48792;BME280;34587;48.816;9.420;2022-12-18T17:19:17;99988.06;;;-4.37;81.58
48792;BME280;34587;48.816;9.420;2022-12-18T17:21:43;99987.69;;;-4.44;82.09
48792;BME280;34587;48.816;9.420;2022-12-18T17:24:09;99970.78;;;-4.45;82.25
48792;BME280;34587;48.816;9.420;2022-12-18T17:26:35;99981.06;;;-4.42;82.07
48792;BME280;34587;48.816;9.420;2022-12-18T17:29:01;99979.84;;;-4.48;82.19
48792;BME280;34587;48.816;9.420;2022-12-18T17:31:28;99966.91;;;-4.53;82.63
48792;BME280;34587;48.816;9.420;2022-12-18T17:33:54;99971.94;;;-4.40;82.41
48792;BME280;34587;48.816;9.420;2022-12-18T17:36:20;99968.34;;;-4.43;82.60
48792;BME280;34587;48.816;9.420;2022-12-18T17:38:52;99970.94;;;-4.42;82.76
48792;BME280;34587;48.816;9.420;2022-12-18T17:41:18;99965.91;;;-4.55;82.89
48792;BME280;34587;48.816;9.420;2022-12-18T17:43:43;99969.41;;;-4.40;83.04
48792;BME280;34587;48.816;9.420;2022-12-18T17:46:12;99965.78;;;-4.30;82.28
48792;BME280;34587;48.816;9.420;2022-12-18T17:48:38;99968.69;;;-4.37;82.60
48792;BME280;34587;48.816;9.420;2022-12-18T17:51:05;99973.78;;;-4.22;82.12
48792;BME280;34587;48.816;9.420;2022-12-18T17:53:31;99977.31;;;-4.20;81.81
48792;BME280;34587;48.816;9.420;2022-12-18T17:55:57;99976.09;;;-4.12;81.50
48792;BME280;34587;48.816;9.420;2022-12-18T17:58:25;99979.22;;;-4.16;81.52
48792;BME280;34587;48.816;9.420;2022-12-18T18:00:50;99972.41;;;-4.17;81.49
48792;BME280;34587;48.816;9.420;2022-12-18T18:03:15;99974.16;;;-4.16;81.47
48792;BME280;34587;48.816;9.420;2022-12-18T18:05:40;99966.28;;;-4.21;81.74
48792;BME280;34587;48.816;9.420;2022-12-18T18:08:06;99969.88;;;-4.17;81.80
48792;BME280;34587;48.816;9.420;2022-12-18T18:10:35;99964.22;;;-4.13;82.14
48792;BME280;34587;48.816;9.420;2022-12-18T18:13:03;99959.88;;;-4.16;81.89
48792;BME280;34587;48.816;9.420;2022-12-18T18:15:54;99962.47;;;-4.14;82.13
48792;BME280;34587;48.816;9.420;2022-12-18T18:18:20;99968.25;;;-4.02;81.45
48792;BME280;34587;48.816;9.420;2022-12-18T18:20:46;99963.03;;;-4.05;81.39
48792;BME280;34587;48.816;9.420;2022-12-18T18:23:11;99959.53;;;-4.07;81.75
48792;BME280;34587;48.816;9.420;2022-12-18T18:25:36;99959.97;;;-3.99;81.55
48792;BME280;34587;48.816;9.420;2022-12-18T18:28:02;99954.91;;;-3.99;81.30
48792;BME280;34587;48.816;9.420;2022-12-18T18:30:27;99966.50;;;-4.03;81.33
48792;BME280;34587;48.816;9.420;2022-12-18T18:32:52;99955.00;;;-3.98;81.53
48792;BME280;34587;48.816;9.420;2022-12-18T18:35:17;99949.78;;;-4.01;81.49
48792;BME280;34587;48.816;9.420;2022-12-18T18:37:43;99955.53;;;-4.03;81.55
48792;BME280;34587;48.816;9.420;2022-12-18T18:40:08;99953.06;;;-4.02;81.57
48792;BME280;34587;48.816;9.420;2022-12-18T18:42:34;99949.34;;;-3.94;81.10
48792;BME280;34587;48.816;9.420;2022-12-18T18:44:59;99938.00;;;-3.85;80.58
48792;BME280;34587;48.816;9.420;2022-12-18T18:47:24;99931.63;;;-3.94;81.05
48792;BME280;34587;48.816;9.420;2022-12-18T18:49:50;99934.50;;;-3.88;80.79
48792;BME280;34587;48.816;9.420;2022-12-18T18:52:15;99931.69;;;-3.92;81.20
48792;BME280;34587;48.816;9.420;2022-12-18T18:54:41;99930.06;;;-3.92;80.87
48792;BME280;34587;48.816;9.420;2022-12-18T18:57:06;99932.69;;;-3.90;80.36
48792;BME280;34587;48.816;9.420;2022-12-18T18:59:33;99937.03;;;-3.88;80.89
48792;BME280;34587;48.816;9.420;2022-12-18T19:01:59;99927.09;;;-3.84;80.38
48792;BME280;34587;48.816;9.420;2022-12-18T19:04:24;99930.06;;;-3.92;80.80
48792;BME280;34587;48.816;9.420;2022-12-18T19:06:50;99934.88;;;-3.81;79.92
48792;BME280;34587;48.816;9.420;2022-12-18T19:09:15;99931.47;;;-3.82;80.00